Time;durP1;ratioP1;P1;durP2;ratioP2;P2;SDS_P1;SDS_P2;PMS_P1;PMS_P2;Temp;Humidity;BMP_temperature;BMP_pressure;BME280_temperature;BME280_humidity;BME280_pressure;Samples;Min_cycle;Max_cycle;Signal;HPM_P1;HPM_P2
2022/12/06 00:02:12;;;;;;;6.85;2.50;;;;;;;;;;5042531;28;20093;-74
2022/12/06 00:04:38;;;;;;;8.82;3.65;;;;;;;;;;5041431;28;20135;-73
2022/12/06 00:07:05;;;;;;;11.77;2.90;;;;;;;;;;5060506;28;20416;-74
2022/12/06 00:09:32;;;;;;;16.90;3.33;;;;;;;;;;5056160;28;20415;-74
2022/12/06 00:11:58;;;;;;;10.65;3.03;;;;;;;;;;5042181;28;20048;-73
2022/12/06 00:14:24;;;;;;;7.53;1.95;;;;;;;;;;5056718;28;20135;-74
2022/12/06 00:16:51;;;;;;;7.47;2.25;;;;;;;;;;5053195;28;20054;-75
2022/12/06 00:19:18;;;;;;;10.93;2.10;;;;;;;;;;5018940;28;20076;-74
2022/12/06 00:21:46;;;;;;;15.50;2.20;;;;;;;;;;5044599;28;20044;-74
2022/12/06 00:24:13;;;;;;;8.10;2.20;;;;;;;;;;5030100;28;20048;-74
2022/12/06 00:26:41;;;;;;;6.28;1.60;;;;;;;;;;5060351;28;20048;-74
2022/12/06 00:29:08;;;;;;;4.72;1.73;;;;;;;;;;5045324;28;20066;-73
2022/12/06 00:31:34;;;;;;;4.70;1.67;;;;;;;;;;5026638;28;20052;-74
2022/12/06 00:34:01;;;;;;;4.18;2.13;;;;;;;;;;5052204;28;20055;-74
2022/12/06 00:36:29;;;;;;;4.18;1.63;;;;;;;;;;5048009;28;21993;-74
2022/12/06 00:38:55;;;;;;;9.02;1.48;;;;;;;;;;5061685;28;20059;-73
2022/12/06 00:41:22;;;;;;;8.75;1.27;;;;;;;;;;5052935;28;20048;-73
2022/12/06 00:43:49;;;;;;;8.43;1.60;;;;;;;;;;5053559;28;20048;-74
2022/12/06 00:46:17;;;;;;;8.07;1.33;;;;;;;;;;5031713;28;20048;-74
2022/12/06 00:48:43;;;;;;;4.10;1.30;;;;;;;;;;5053474;28;20060;-74
2022/12/06 00:51:10;;;;;;;7.32;1.20;;;;;;;;;;5047299;28;20067;-74
2022/12/06 00:53:36;;;;;;;9.10;2.65;;;;;;;;;;5042535;28;20059;-74
2022/12/06 00:56:02;;;;;;;3.00;1.30;;;;;;;;;;5044821;28;20082;-74
2022/12/06 00:58:28;;;;;;;11.43;3.22;;;;;;;;;;5048272;28;20079;-74
2022/12/06 01:00:54;;;;;;;5.82;1.77;;;;;;;;;;5029248;28;21272;-74
2022/12/06 01:03:20;;;;;;;2.65;1.10;;;;;;;;;;5061009;28;20540;-74
2022/12/06 01:05:50;;;;;;;5.78;1.50;;;;;;;;;;5061304;28;20094;-74
2022/12/06 01:08:17;;;;;;;11.18;2.85;;;;;;;;;;5047916;28;20120;-74
2022/12/06 01:10:51;;;;;;;6.72;2.88;;;;;;;;;;5027101;28;20055;-74
2022/12/06 01:13:17;;;;;;;6.90;2.80;;;;;;;;;;5065703;28;20073;-74
2022/12/06 01:15:43;;;;;;;4.97;1.60;;;;;;;;;;5047216;28;20125;-74
2022/12/06 01:18:09;;;;;;;7.15;1.83;;;;;;;;;;5033712;28;20044;-75
2022/12/06 01:20:35;;;;;;;7.43;1.50;;;;;;;;;;5045487;28;20055;-75
2022/12/06 01:23:01;;;;;;;4.95;1.65;;;;;;;;;;5064840;28;20788;-75
2022/12/06 01:25:29;;;;;;;6.10;1.95;;;;;;;;;;5046068;28;20523;-75
2022/12/06 01:27:55;;;;;;;4.80;1.30;;;;;;;;;;5050905;28;20063;-75
2022/12/06 01:30:21;;;;;;;5.25;1.20;;;;;;;;;;5043795;28;20051;-75
2022/12/06 01:32:48;;;;;;;8.20;2.08;;;;;;;;;;5043570;28;20144;-75
2022/12/06 01:35:14;;;;;;;9.13;5.43;;;;;;;;;;5040853;28;20140;-75
2022/12/06 01:37:40;;;;;;;4.75;1.35;;;;;;;;;;5043704;28;20055;-75
2022/12/06 01:40:06;;;;;;;7.30;1.95;;;;;;;;;;5055876;28;22120;-75
2022/12/06 01:42:32;;;;;;;6.38;2.10;;;;;;;;;;5044333;28;20048;-74
2022/12/06 01:44:58;;;;;;;2.40;1.20;;;;;;;;;;5064019;28;20445;-74
2022/12/06 01:47:27;;;;;;;15.63;5.80;;;;;;;;;;5044288;28;20067;-74
2022/12/06 01:50:04;;;;;;;8.15;2.10;;;;;;;;;;5049243;28;20143;-74
2022/12/06 01:52:35;;;;;;;4.57;2.20;;;;;;;;;;5054506;28;20072;-74
2022/12/06 01:55:02;;;;;;;5.43;2.00;;;;;;;;;;5057455;28;20049;-74
2022/12/06 01:57:29;;;;;;;14.50;3.58;;;;;;;;;;5043416;28;22270;-75
2022/12/06 01:59:55;;;;;;;3.83;1.50;;;;;;;;;;5042747;28;21041;-74
2022/12/06 02:02:21;;;;;;;6.80;2.00;;;;;;;;;;5042963;28;20840;-74
2022/12/06 02:04:48;;;;;;;13.48;4.93;;;;;;;;;;5061378;28;20044;-74
2022/12/06 02:07:14;;;;;;;13.07;6.43;;;;;;;;;;5044123;28;20044;-74
2022/12/06 02:09:40;;;;;;;12.50;5.40;;;;;;;;;;5044276;28;20051;-74
2022/12/06 02:12:14;;;;;;;5.45;3.53;;;;;;;;;;5055382;28;21746;-74
2022/12/06 02:14:40;;;;;;;7.03;4.90;;;;;;;;;;5042805;28;20054;-74
2022/12/06 02:17:09;;;;;;;15.10;6.15;;;;;;;;;;5042315;28;22284;-74
2022/12/06 02:19:35;;;;;;;12.65;4.60;;;;;;;;;;5061097;28;20075;-74
2022/12/06 02:22:08;;;;;;;9.23;5.03;;;;;;;;;;5042852;28;20067;-74
2022/12/06 02:24:41;;;;;;;8.70;2.72;;;;;;;;;;5039424;28;20048;-74
2022/12/06 02:27:16;;;;;;;8.52;2.97;;;;;;;;;;5050254;28;20051;-74
2022/12/06 02:29:51;;;;;;;8.80;4.20;;;;;;;;;;5056946;28;20049;-74
2022/12/06 02:32:20;;;;;;;8.55;2.72;;;;;;;;;;5040427;28;20041;-74
2022/12/06 02:35:11;;;;;;;6.28;3.58;;;;;;;;;;5040861;28;20048;-74
2022/12/06 02:37:42;;;;;;;6.75;2.17;;;;;;;;;;5042565;28;20065;-74
2022/12/06 02:40:11;;;;;;;4.07;1.27;;;;;;;;;;5058250;28;20610;-74
2022/12/06 02:42:50;;;;;;;9.48;2.53;;;;;;;;;;5046418;28;20443;-74
2022/12/06 02:45:19;;;;;;;6.63;1.70;;;;;;;;;;5042130;28;20078;-74
2022/12/06 02:47:46;;;;;;;2.72;1.15;;;;;;;;;;5043092;28;20131;-74
2022/12/06 02:50:14;;;;;;;2.70;1.83;;;;;;;;;;5055480;28;20699;-74
2022/12/06 02:52:42;;;;;;;2.38;0.95;;;;;;;;;;5041477;28;20140;-74
2022/12/06 02:55:09;;;;;;;6.35;1.30;;;;;;;;;;5055348;28;20045;-73
2022/12/06 02:57:41;;;;;;;3.38;1.75;;;;;;;;;;5044006;28;20496;-73
2022/12/06 03:00:43;;;;;;;2.67;0.80;;;;;;;;;;5042149;28;20404;-73
2022/12/06 03:03:09;;;;;;;3.38;0.90;;;;;;;;;;4977919;28;21997;-73
2022/12/06 03:05:39;;;;;;;4.03;1.52;;;;;;;;;;5027281;28;20047;-74
2022/12/06 03:08:08;;;;;;;2.25;1.00;;;;;;;;;;5040278;28;20381;-74
2022/12/06 03:10:44;;;;;;;7.47;1.50;;;;;;;;;;5040877;28;20102;-73
2022/12/06 03:13:23;;;;;;;2.95;2.05;;;;;;;;;;5056007;28;20060;-74
2022/12/06 03:16:12;;;;;;;3.28;1.08;;;;;;;;;;5057057;28;20063;-74
2022/12/06 03:18:44;;;;;;;5.93;1.38;;;;;;;;;;5038188;28;20089;-73
2022/12/06 03:21:17;;;;;;;2.80;0.70;;;;;;;;;;5041469;28;20056;-74
2022/12/06 03:23:44;;;;;;;1.67;0.95;;;;;;;;;;5039001;28;20150;-74
2022/12/06 03:26:13;;;;;;;1.90;0.80;;;;;;;;;;5042245;28;20493;-74
2022/12/06 03:28:39;;;;;;;3.97;0.70;;;;;;;;;;5041004;28;20044;-74
2022/12/06 03:31:08;;;;;;;1.05;0.80;;;;;;;;;;5038956;28;20044;-74
2022/12/06 03:33:36;;;;;;;4.00;0.80;;;;;;;;;;5038729;28;20044;-74
2022/12/06 03:36:03;;;;;;;3.17;0.80;;;;;;;;;;5056928;28;20044;-73
2022/12/06 03:38:31;;;;;;;2.40;0.80;;;;;;;;;;5054435;28;20059;-73
2022/12/06 03:41:01;;;;;;;4.53;0.90;;;;;;;;;;5052923;28;20071;-73
2022/12/06 03:43:27;;;;;;;4.13;0.82;;;;;;;;;;5040036;28;20051;-73
2022/12/06 03:46:13;;;;;;;7.43;0.90;;;;;;;;;;5039363;28;20581;-73
2022/12/06 03:48:51;;;;;;;2.72;1.10;;;;;;;;;;5057750;28;20055;-73
2022/12/06 03:51:24;;;;;;;2.75;1.02;;;;;;;;;;5037746;28;20130;-74
2022/12/06 03:53:52;;;;;;;3.33;0.80;;;;;;;;;;5039979;28;20052;-74
2022/12/06 03:56:18;;;;;;;8.52;1.20;;;;;;;;;;5049205;28;20055;-74
2022/12/06 03:58:44;;;;;;;8.77;1.08;;;;;;;;;;5037577;28;20071;-74
2022/12/06 04:01:10;;;;;;;4.18;0.80;;;;;;;;;;5033710;28;20260;-74
2022/12/06 04:03:36;;;;;;;2.13;0.70;;;;;;;;;;5056683;28;20055;-74
2022/12/06 04:06:03;;;;;;;4.93;1.00;;;;;;;;;;5038569;28;20128;-74
2022/12/06 04:08:29;;;;;;;3.40;0.85;;;;;;;;;;5026288;28;20699;-74
2022/12/06 04:10:55;;;;;;;3.53;0.88;;;;;;;;;;5039495;28;21346;-73
2022/12/06 04:13:21;;;;;;;3.53;0.90;;;;;;;;;;5036834;28;20044;-73
2022/12/06 04:15:48;;;;;;;3.45;0.90;;;;;;;;;;5039645;28;20044;-74
2022/12/06 04:18:14;;;;;;;3.50;0.98;;;;;;;;;;5046216;28;20071;-74
2022/12/06 04:23:29;;;;;;;6.28;1.10;;;;;;;;;;5042730;28;20105;-74
2022/12/06 04:25:55;;;;;;;2.72;1.10;;;;;;;;;;5042880;28;20048;-74
2022/12/06 04:39:21;;;;;;;4.38;1.50;;;;;;;;;;5041265;28;20130;-74
2022/12/06 04:44:32;;;;;;;9.60;1.83;;;;;;;;;;5060131;28;20051;-74
2022/12/06 04:46:58;;;;;;;2.55;1.20;;;;;;;;;;5043844;28;20132;-74
2022/12/06 04:49:25;;;;;;;3.88;1.10;;;;;;;;;;5059191;28;20169;-74
2022/12/06 04:51:51;;;;;;;2.45;1.30;;;;;;;;;;5037550;28;20623;-74
2022/12/06 04:54:18;;;;;;;6.57;1.58;;;;;;;;;;5035581;28;20079;-74
2022/12/06 04:56:44;;;;;;;5.13;1.58;;;;;;;;;;5035848;28;20044;-73
2022/12/06 04:59:10;;;;;;;2.92;1.48;;;;;;;;;;5040175;28;20545;-74
2022/12/06 05:01:36;;;;;;;2.80;1.50;;;;;;;;;;5037420;28;20182;-74
2022/12/06 05:04:02;;;;;;;2.67;1.80;;;;;;;;;;5046222;28;20063;-74
2022/12/06 05:06:28;;;;;;;3.55;1.92;;;;;;;;;;5043482;28;20056;-74
2022/12/06 05:08:54;;;;;;;6.90;1.90;;;;;;;;;;5044106;28;20067;-73
2022/12/06 05:11:20;;;;;;;4.88;2.00;;;;;;;;;;5043400;28;20438;-74
2022/12/06 05:13:46;;;;;;;3.03;2.60;;;;;;;;;;5027095;28;20656;-74
2022/12/06 05:16:12;;;;;;;8.88;2.97;;;;;;;;;;5042931;28;20051;-74
2022/12/06 05:18:38;;;;;;;6.38;2.55;;;;;;;;;;5044218;28;20060;-74
2022/12/06 05:21:06;;;;;;;5.50;2.80;;;;;;;;;;5032087;28;20109;-74
2022/12/06 05:23:33;;;;;;;3.10;2.65;;;;;;;;;;5057102;28;20067;-74
2022/12/06 05:26:06;;;;;;;10.02;2.95;;;;;;;;;;5051280;28;20052;-74
2022/12/06 05:28:33;;;;;;;4.70;3.05;;;;;;;;;;5043113;28;20083;-74
2022/12/06 05:30:59;;;;;;;3.38;3.08;;;;;;;;;;5058417;28;20063;-74
2022/12/06 05:33:25;;;;;;;3.83;2.97;;;;;;;;;;5059341;28;20060;-74
2022/12/06 05:35:52;;;;;;;5.93;3.20;;;;;;;;;;5035240;28;20060;-74
2022/12/06 05:38:18;;;;;;;4.68;3.20;;;;;;;;;;5047063;28;20054;-74
2022/12/06 05:40:45;;;;;;;4.47;3.08;;;;;;;;;;5040328;28;20526;-74
2022/12/06 05:43:11;;;;;;;3.30;3.00;;;;;;;;;;5038263;28;20671;-73
2022/12/06 05:45:38;;;;;;;8.43;3.13;;;;;;;;;;5058720;28;20055;-74
2022/12/06 05:48:04;;;;;;;3.17;2.88;;;;;;;;;;5056634;28;20065;-74
2022/12/06 05:50:30;;;;;;;4.93;3.00;;;;;;;;;;5057485;28;20054;-74
2022/12/06 05:52:57;;;;;;;9.07;3.03;;;;;;;;;;5017410;28;20176;-74
2022/12/06 05:55:24;;;;;;;7.97;2.83;;;;;;;;;;5043725;28;20134;-74
2022/12/06 05:57:50;;;;;;;2.83;2.20;;;;;;;;;;5052381;28;20067;-74
2022/12/06 06:00:17;;;;;;;4.90;2.40;;;;;;;;;;5018781;28;20048;-74
2022/12/06 06:02:43;;;;;;;10.40;2.33;;;;;;;;;;5059244;28;20176;-74
2022/12/06 06:05:10;;;;;;;4.50;2.50;;;;;;;;;;5039402;28;20481;-74
2022/12/06 06:07:36;;;;;;;4.85;2.25;;;;;;;;;;5051440;28;20159;-74
2022/12/06 06:10:02;;;;;;;5.10;2.13;;;;;;;;;;5042914;28;20083;-74
2022/12/06 06:12:29;;;;;;;3.13;2.00;;;;;;;;;;5043406;28;20058;-74
2022/12/06 06:14:55;;;;;;;3.28;2.15;;;;;;;;;;5056296;28;20205;-73
2022/12/06 06:17:21;;;;;;;5.43;2.08;;;;;;;;;;5056190;28;20080;-74
2022/12/06 06:19:47;;;;;;;6.35;2.40;;;;;;;;;;5040336;28;20397;-74
2022/12/06 06:22:13;;;;;;;2.63;2.05;;;;;;;;;;5022840;28;20506;-74
2022/12/06 06:24:41;;;;;;;8.85;2.33;;;;;;;;;;5041748;28;20052;-74
2022/12/06 06:27:07;;;;;;;5.20;2.10;;;;;;;;;;5038416;28;20110;-74
2022/12/06 06:29:33;;;;;;;3.65;2.15;;;;;;;;;;5047469;28;20134;-73
2022/12/06 06:31:59;;;;;;;7.35;2.63;;;;;;;;;;5028326;28;20048;-74
2022/12/06 06:34:25;;;;;;;4.53;2.25;;;;;;;;;;5050610;28;20174;-74
2022/12/06 06:36:51;;;;;;;4.35;2.47;;;;;;;;;;5040570;28;20063;-74
2022/12/06 06:39:18;;;;;;;3.67;2.42;;;;;;;;;;5043107;28;21885;-74
2022/12/06 06:41:44;;;;;;;6.90;3.03;;;;;;;;;;5009135;28;20143;-74
2022/12/06 06:44:10;;;;;;;4.85;2.88;;;;;;;;;;5042050;28;20150;-74
2022/12/06 06:46:37;;;;;;;5.72;2.40;;;;;;;;;;5045938;28;21381;-74
2022/12/06 06:49:03;;;;;;;4.28;3.30;;;;;;;;;;5061117;28;20072;-74
2022/12/06 06:51:30;;;;;;;7.22;4.45;;;;;;;;;;5046797;28;20440;-74
2022/12/06 06:53:56;;;;;;;4.80;2.95;;;;;;;;;;5054772;28;20083;-74
2022/12/06 06:56:22;;;;;;;5.47;3.20;;;;;;;;;;5052550;28;20059;-74
2022/12/06 06:58:49;;;;;;;4.80;2.75;;;;;;;;;;5040434;28;20143;-74
2022/12/06 07:01:22;;;;;;;3.80;2.45;;;;;;;;;;5058413;28;20040;-74
2022/12/06 07:03:48;;;;;;;3.80;2.57;;;;;;;;;;5027285;28;20998;-73
2022/12/06 07:06:14;;;;;;;7.72;3.00;;;;;;;;;;5057674;28;20098;-74
2022/12/06 07:08:41;;;;;;;5.40;2.80;;;;;;;;;;5028505;28;20053;-74
2022/12/06 07:11:08;;;;;;;6.95;2.80;;;;;;;;;;5037051;28;22069;-73
2022/12/06 07:13:35;;;;;;;3.70;2.88;;;;;;;;;;5019722;28;20171;-73
2022/12/06 07:16:03;;;;;;;5.50;2.97;;;;;;;;;;5057348;28;20175;-73
2022/12/06 07:18:29;;;;;;;6.32;2.88;;;;;;;;;;5056828;28;20059;-73
2022/12/06 07:21:00;;;;;;;5.07;2.70;;;;;;;;;;5039926;28;20055;-73
2022/12/06 07:23:26;;;;;;;7.00;3.08;;;;;;;;;;5042129;28;20056;-73
2022/12/06 07:25:59;;;;;;;8.68;2.70;;;;;;;;;;5039147;28;20243;-73
2022/12/06 07:28:25;;;;;;;7.72;3.47;;;;;;;;;;5042394;28;20468;-73
2022/12/06 07:30:51;;;;;;;4.70;2.95;;;;;;;;;;5039669;28;20634;-73
2022/12/06 07:33:17;;;;;;;11.63;3.35;;;;;;;;;;5038853;28;20060;-73
2022/12/06 07:35:43;;;;;;;10.13;3.35;;;;;;;;;;5053405;28;20058;-73
2022/12/06 07:38:09;;;;;;;6.47;2.90;;;;;;;;;;5039164;28;20137;-73
2022/12/06 07:40:35;;;;;;;5.35;2.97;;;;;;;;;;5047701;28;20044;-73
2022/12/06 07:45:46;;;;;;;11.82;9.80;;;;;;;;;;5043885;28;20760;-73
2022/12/06 07:48:12;;;;;;;12.85;7.95;;;;;;;;;;5024656;28;20047;-73
2022/12/06 07:50:39;;;;;;;9.23;6.95;;;;;;;;;;4997916;28;1110214;-73
2022/12/06 07:53:05;;;;;;;9.02;6.20;;;;;;;;;;5037082;28;20097;-72
2022/12/06 07:55:31;;;;;;;10.25;5.72;;;;;;;;;;5055512;28;20044;-72
2022/12/06 07:57:57;;;;;;;10.55;4.95;;;;;;;;;;5020562;28;20048;-71
2022/12/06 08:00:25;;;;;;;5.25;3.47;;;;;;;;;;5040316;28;22055;-72
2022/12/06 08:02:51;;;;;;;7.80;3.50;;;;;;;;;;5045562;28;20072;-72
2022/12/06 08:05:17;;;;;;;7.20;3.50;;;;;;;;;;5038537;28;20052;-72
2022/12/06 08:07:43;;;;;;;8.25;2.90;;;;;;;;;;5045394;28;20391;-72
2022/12/06 08:10:09;;;;;;;6.97;3.25;;;;;;;;;;5037377;28;22510;-72
2022/12/06 08:12:36;;;;;;;6.75;2.80;;;;;;;;;;5038440;28;20128;-72
2022/12/06 08:15:02;;;;;;;7.55;2.67;;;;;;;;;;5040071;28;20205;-72
2022/12/06 08:17:29;;;;;;;6.13;2.78;;;;;;;;;;5038856;28;20051;-72
2022/12/06 08:19:55;;;;;;;6.10;2.80;;;;;;;;;;5038946;28;20500;-72
2022/12/06 08:22:21;;;;;;;6.50;2.78;;;;;;;;;;5056043;28;20470;-72
2022/12/06 08:24:47;;;;;;;6.65;2.50;;;;;;;;;;5057296;28;20058;-72
2022/12/06 08:27:13;;;;;;;6.10;2.67;;;;;;;;;;5051117;28;20415;-72
2022/12/06 08:29:39;;;;;;;9.85;2.70;;;;;;;;;;5055259;28;21966;-72
2022/12/06 08:32:05;;;;;;;4.10;3.15;;;;;;;;;;5037931;28;20103;-72
2022/12/06 08:34:31;;;;;;;10.95;7.22;;;;;;;;;;5041178;28;20052;-72
2022/12/06 08:36:57;;;;;;;5.13;4.22;;;;;;;;;;5026410;28;20419;-72
2022/12/06 08:39:24;;;;;;;5.63;3.58;;;;;;;;;;5055644;28;20148;-72
2022/12/06 08:42:02;;;;;;;4.68;3.63;;;;;;;;;;5041232;28;20052;-72
2022/12/06 08:44:29;;;;;;;5.35;4.45;;;;;;;;;;5041555;28;20064;-72
2022/12/06 08:46:55;;;;;;;6.00;3.70;;;;;;;;;;5040428;28;20544;-72
2022/12/06 08:49:22;;;;;;;15.75;5.00;;;;;;;;;;5041180;28;20092;-72
2022/12/06 08:51:48;;;;;;;7.38;5.65;;;;;;;;;;5039738;28;20067;-71
2022/12/06 08:54:16;;;;;;;10.50;4.43;;;;;;;;;;5027807;28;20052;-72
2022/12/06 08:56:42;;;;;;;8.60;6.28;;;;;;;;;;5042609;28;20080;-72
2022/12/06 08:59:08;;;;;;;9.55;6.72;;;;;;;;;;5042627;28;20062;-72
2022/12/06 09:01:34;;;;;;;15.10;11.18;;;;;;;;;;5058728;28;20051;-72
2022/12/06 09:04:04;;;;;;;23.95;14.43;;;;;;;;;;5045200;28;21072;-72
2022/12/06 09:06:30;;;;;;;23.00;13.13;;;;;;;;;;5044556;28;20082;-72
2022/12/06 09:08:57;;;;;;;6.85;4.70;;;;;;;;;;5044145;28;20048;-72
2022/12/06 09:11:23;;;;;;;7.25;4.03;;;;;;;;;;5046861;28;20059;-72
2022/12/06 09:13:50;;;;;;;4.80;2.80;;;;;;;;;;5041390;28;21667;-72
2022/12/06 09:16:20;;;;;;;7.35;3.63;;;;;;;;;;5041410;28;20166;-72
2022/12/06 09:18:46;;;;;;;7.68;3.50;;;;;;;;;;5041612;28;20075;-72
2022/12/06 09:21:14;;;;;;;5.43;2.97;;;;;;;;;;5054016;28;20068;-72
2022/12/06 09:23:40;;;;;;;7.20;3.08;;;;;;;;;;5041359;28;20055;-72
2022/12/06 09:26:06;;;;;;;10.38;3.13;;;;;;;;;;5059103;28;20606;-73
2022/12/06 09:28:36;;;;;;;8.52;2.55;;;;;;;;;;5042007;28;20136;-73
2022/12/06 09:31:03;;;;;;;4.28;2.90;;;;;;;;;;5058289;28;20486;-73
2022/12/06 09:33:29;;;;;;;7.53;3.13;;;;;;;;;;5045529;28;21378;-73
2022/12/06 09:35:56;;;;;;;4.82;2.80;;;;;;;;;;5057226;28;22009;-73
2022/12/06 09:38:23;;;;;;;2.97;2.25;;;;;;;;;;5026166;28;20060;-73
2022/12/06 09:40:50;;;;;;;6.57;2.72;;;;;;;;;;5063328;28;20055;-73
2022/12/06 09:43:34;;;;;;;6.47;3.17;;;;;;;;;;5043878;28;20044;-73
2022/12/06 09:46:26;;;;;;;4.55;2.70;;;;;;;;;;5044068;28;20162;-73
2022/12/06 09:49:13;;;;;;;7.25;3.03;;;;;;;;;;5018913;28;20063;-73
2022/12/06 09:51:59;;;;;;;7.28;2.85;;;;;;;;;;5045373;28;20082;-73
2022/12/06 09:54:41;;;;;;;5.35;3.25;;;;;;;;;;5043870;28;20411;-73
2022/12/06 09:57:11;;;;;;;5.95;3.25;;;;;;;;;;5043802;28;20060;-73
2022/12/06 09:59:57;;;;;;;28.70;4.07;;;;;;;;;;5043860;28;20059;-73
2022/12/06 10:02:32;;;;;;;6.13;2.40;;;;;;;;;;5044511;28;20059;-73
2022/12/06 10:05:10;;;;;;;4.43;3.05;;;;;;;;;;5045041;28;20054;-73
2022/12/06 10:07:52;;;;;;;5.68;3.05;;;;;;;;;;5060012;28;20052;-73
2022/12/06 10:10:37;;;;;;;4.05;2.60;;;;;;;;;;5045678;28;20058;-73
2022/12/06 10:13:03;;;;;;;8.82;3.20;;;;;;;;;;5062635;28;20048;-73
2022/12/06 10:15:29;;;;;;;6.10;2.83;;;;;;;;;;5025433;28;20062;-73
2022/12/06 10:18:01;;;;;;;4.10;3.05;;;;;;;;;;5045568;28;20071;-73
2022/12/06 10:20:37;;;;;;;7.30;3.70;;;;;;;;;;5060438;28;20080;-73
2022/12/06 10:23:12;;;;;;;6.55;2.63;;;;;;;;;;5045556;28;20175;-73
2022/12/06 10:25:45;;;;;;;14.82;4.80;;;;;;;;;;5046223;28;20052;-73
2022/12/06 10:28:21;;;;;;;6.40;2.88;;;;;;;;;;5044606;28;20043;-73
2022/12/06 10:30:52;;;;;;;7.32;3.00;;;;;;;;;;5048178;28;20051;-73
2022/12/06 10:33:37;;;;;;;7.28;2.50;;;;;;;;;;5042220;28;20128;-73
2022/12/06 10:36:04;;;;;;;7.22;3.10;;;;;;;;;;5059943;28;20063;-73
2022/12/06 10:38:37;;;;;;;4.85;2.20;;;;;;;;;;5058556;28;20079;-73
2022/12/06 10:41:13;;;;;;;7.07;2.33;;;;;;;;;;5043247;28;22524;-73
2022/12/06 10:44:00;;;;;;;4.93;2.33;;;;;;;;;;5042639;28;20145;-73
2022/12/06 10:49:22;;;;;;;8.43;3.92;;;;;;;;;;5043919;28;20048;-73
2022/12/06 10:51:54;;;;;;;9.15;2.10;;;;;;;;;;5058359;28;20048;-74
2022/12/06 10:54:42;;;;;;;6.00;2.13;;;;;;;;;;5045703;28;20568;-74
2022/12/06 10:57:13;;;;;;;2.83;1.90;;;;;;;;;;5058637;28;22033;-73
2022/12/06 10:59:43;;;;;;;3.10;2.42;;;;;;;;;;5058348;28;20052;-73
2022/12/06 11:02:22;;;;;;;8.43;2.50;;;;;;;;;;5059813;28;20048;-73
2022/12/06 11:04:48;;;;;;;5.72;2.25;;;;;;;;;;5062428;28;20055;-73
2022/12/06 11:07:17;;;;;;;9.85;2.38;;;;;;;;;;5045179;28;20516;-73
2022/12/06 11:09:45;;;;;;;4.05;2.30;;;;;;;;;;5062586;28;20535;-73
2022/12/06 11:12:35;;;;;;;2.95;1.73;;;;;;;;;;5057309;28;20048;-74
2022/12/06 11:15:16;;;;;;;9.52;2.13;;;;;;;;;;5043103;28;20055;-74
2022/12/06 11:17:52;;;;;;;4.10;2.15;;;;;;;;;;5058055;28;20171;-74
2022/12/06 11:20:26;;;;;;;3.72;2.08;;;;;;;;;;5040794;28;20131;-74
2022/12/06 11:23:16;;;;;;;2.85;1.67;;;;;;;;;;5056985;28;20051;-74
2022/12/06 11:25:51;;;;;;;6.82;1.77;;;;;;;;;;5038683;28;20082;-74
2022/12/06 11:28:54;;;;;;;14.35;2.60;;;;;;;;;;5040359;28;20086;-73
2022/12/06 11:31:25;;;;;;;9.32;1.70;;;;;;;;;;4983392;28;20045;-72
2022/12/06 11:33:51;;;;;;;5.28;2.05;;;;;;;;;;5033600;28;20067;-73
2022/12/06 11:36:18;;;;;;;3.67;1.55;;;;;;;;;;5031408;28;20056;-72
2022/12/06 11:38:44;;;;;;;3.97;1.73;;;;;;;;;;5040993;28;20583;-72
2022/12/06 11:41:13;;;;;;;5.38;1.80;;;;;;;;;;5054499;28;20086;-72
2022/12/06 11:43:39;;;;;;;6.63;2.60;;;;;;;;;;5060946;28;20051;-72
2022/12/06 11:46:06;;;;;;;4.28;2.35;;;;;;;;;;5041573;28;20052;-72
2022/12/06 11:48:35;;;;;;;4.97;2.13;;;;;;;;;;5043310;28;20056;-72
2022/12/06 11:51:01;;;;;;;4.22;1.85;;;;;;;;;;5042864;28;20097;-72
2022/12/06 11:53:31;;;;;;;5.15;1.85;;;;;;;;;;5062694;28;20170;-72
2022/12/06 11:56:00;;;;;;;4.20;2.22;;;;;;;;;;5042945;28;20067;-72
2022/12/06 11:58:43;;;;;;;8.27;2.00;;;;;;;;;;5061104;28;21007;-73
2022/12/06 12:01:12;;;;;;;5.00;1.83;;;;;;;;;;5061494;28;20044;-72
2022/12/06 12:03:39;;;;;;;2.97;2.15;;;;;;;;;;5043918;28;20112;-72
2022/12/06 12:06:08;;;;;;;8.13;2.78;;;;;;;;;;5062157;28;20048;-72
2022/12/06 12:08:35;;;;;;;7.47;2.30;;;;;;;;;;5043289;28;20121;-72
2022/12/06 12:11:03;;;;;;;2.83;2.42;;;;;;;;;;5042111;28;20170;-72
2022/12/06 12:13:45;;;;;;;2.00;1.60;;;;;;;;;;5043128;28;20060;-71
2022/12/06 12:16:11;;;;;;;4.35;1.88;;;;;;;;;;5050874;28;20135;-71
2022/12/06 12:18:39;;;;;;;3.00;1.70;;;;;;;;;;5040059;28;20052;-71
2022/12/06 12:21:06;;;;;;;2.75;1.50;;;;;;;;;;5039681;28;20059;-72
2022/12/06 12:23:36;;;;;;;2.60;1.48;;;;;;;;;;5037714;28;20143;-72
2022/12/06 12:26:17;;;;;;;4.47;1.40;;;;;;;;;;5055547;28;20576;-72
2022/12/06 12:28:44;;;;;;;7.13;2.15;;;;;;;;;;5038947;28;20047;-72
2022/12/06 12:31:21;;;;;;;2.35;1.80;;;;;;;;;;5056599;28;20048;-71
2022/12/06 12:33:47;;;;;;;2.88;1.35;;;;;;;;;;5038821;28;20158;-72
2022/12/06 12:36:33;;;;;;;2.90;1.77;;;;;;;;;;5049477;28;20181;-71
2022/12/06 12:39:00;;;;;;;4.70;1.73;;;;;;;;;;5041268;28;20056;-72
2022/12/06 12:41:29;;;;;;;3.20;1.90;;;;;;;;;;5042559;28;20168;-71
2022/12/06 12:44:03;;;;;;;2.40;1.60;;;;;;;;;;5060047;28;20522;-71
2022/12/06 12:46:30;;;;;;;6.07;3.45;;;;;;;;;;5041744;28;20075;-71
2022/12/06 12:49:13;;;;;;;2.05;1.35;;;;;;;;;;5039647;28;20178;-71
2022/12/06 12:51:39;;;;;;;2.50;1.70;;;;;;;;;;5042904;28;20052;-71
2022/12/06 12:54:19;;;;;;;9.52;1.95;;;;;;;;;;5047807;28;20054;-71
2022/12/06 12:56:45;;;;;;;4.00;2.30;;;;;;;;;;5062379;28;20083;-71
2022/12/06 12:59:13;;;;;;;2.50;1.80;;;;;;;;;;5056341;28;20095;-71
2022/12/06 13:01:54;;;;;;;2.75;1.75;;;;;;;;;;5041157;28;20107;-71
2022/12/06 13:04:42;;;;;;;4.72;1.60;;;;;;;;;;5061447;28;20051;-71
2022/12/06 13:07:15;;;;;;;2.88;1.83;;;;;;;;;;5057809;28;20393;-71
2022/12/06 13:09:44;;;;;;;4.22;2.13;;;;;;;;;;5062349;28;20048;-71
2022/12/06 13:12:12;;;;;;;3.67;1.70;;;;;;;;;;5059957;28;20054;-71
2022/12/06 13:14:40;;;;;;;4.53;1.73;;;;;;;;;;5045118;28;20102;-72
2022/12/06 13:17:08;;;;;;;4.10;1.73;;;;;;;;;;5062124;28;20552;-72
2022/12/06 13:19:39;;;;;;;3.10;1.90;;;;;;;;;;5061956;28;20107;-71
2022/12/06 13:22:06;;;;;;;3.08;1.90;;;;;;;;;;5042925;28;20048;-72
2022/12/06 13:24:33;;;;;;;4.88;2.00;;;;;;;;;;5061432;28;20098;-72
2022/12/06 13:27:01;;;;;;;2.55;1.83;;;;;;;;;;5059044;28;20061;-72
2022/12/06 13:29:33;;;;;;;2.60;1.95;;;;;;;;;;5056788;28;20051;-72
2022/12/06 13:32:06;;;;;;;10.43;5.10;;;;;;;;;;5044686;28;20052;-72
2022/12/06 13:34:34;;;;;;;5.13;2.15;;;;;;;;;;5057331;28;20145;-71
2022/12/06 13:37:01;;;;;;;4.10;2.00;;;;;;;;;;5043458;28;20048;-71
2022/12/06 13:39:30;;;;;;;2.65;2.03;;;;;;;;;;5042608;28;21957;-71
2022/12/06 13:44:47;;;;;;;4.00;2.00;;;;;;;;;;5040136;28;20415;-72
2022/12/06 13:47:26;;;;;;;2.33;1.75;;;;;;;;;;5040719;28;20060;-71
2022/12/06 13:50:00;;;;;;;4.80;2.30;;;;;;;;;;5043993;28;20059;-71
2022/12/06 13:52:41;;;;;;;2.72;1.90;;;;;;;;;;5041829;28;20051;-71
2022/12/06 13:55:27;;;;;;;6.32;2.10;;;;;;;;;;5042190;28;20094;-71
2022/12/06 13:57:56;;;;;;;3.13;1.95;;;;;;;;;;5058064;28;20115;-71
2022/12/06 14:00:28;;;;;;;3.95;2.30;;;;;;;;;;5046045;28;20048;-71
2022/12/06 14:02:59;;;;;;;4.93;2.70;;;;;;;;;;5045808;28;20523;-71
2022/12/06 14:05:44;;;;;;;3.45;2.50;;;;;;;;;;5060407;28;20087;-71
2022/12/06 14:08:11;;;;;;;4.75;2.63;;;;;;;;;;5039858;28;20044;-71
2022/12/06 14:10:37;;;;;;;6.47;3.40;;;;;;;;;;5061492;28;20066;-71
2022/12/06 14:13:03;;;;;;;5.68;2.65;;;;;;;;;;5039917;28;20055;-71
2022/12/06 14:15:29;;;;;;;5.07;3.45;;;;;;;;;;5060093;28;20124;-71
2022/12/06 14:17:57;;;;;;;5.55;3.28;;;;;;;;;;5040167;28;20047;-71
2022/12/06 14:20:26;;;;;;;7.70;3.15;;;;;;;;;;5039719;28;20056;-71
2022/12/06 14:22:52;;;;;;;4.03;3.00;;;;;;;;;;5053562;28;20048;-71
2022/12/06 14:25:22;;;;;;;5.97;3.10;;;;;;;;;;5060314;28;20779;-71
2022/12/06 14:27:49;;;;;;;5.47;2.80;;;;;;;;;;5034848;28;20079;-71
2022/12/06 14:30:18;;;;;;;4.93;2.75;;;;;;;;;;5049706;28;20067;-71
2022/12/06 14:32:46;;;;;;;4.25;2.70;;;;;;;;;;5039298;28;20056;-71
2022/12/06 14:35:20;;;;;;;6.22;2.67;;;;;;;;;;5056621;28;20107;-71
2022/12/06 14:37:48;;;;;;;5.05;2.53;;;;;;;;;;5044339;28;20056;-71
2022/12/06 14:40:21;;;;;;;4.93;3.65;;;;;;;;;;5040430;28;20054;-71
2022/12/06 14:43:02;;;;;;;8.40;5.60;;;;;;;;;;5042919;28;20089;-71
2022/12/06 14:45:31;;;;;;;9.07;6.70;;;;;;;;;;5041639;28;20150;-72
2022/12/06 14:47:58;;;;;;;8.48;6.20;;;;;;;;;;5040513;28;20082;-72
2022/12/06 14:50:27;;;;;;;4.75;4.03;;;;;;;;;;5060984;28;20048;-72
2022/12/06 14:53:07;;;;;;;7.13;3.25;;;;;;;;;;5041456;28;20052;-72
2022/12/06 14:55:34;;;;;;;5.25;2.30;;;;;;;;;;5061938;28;20048;-73
2022/12/06 14:58:14;;;;;;;7.82;3.00;;;;;;;;;;5058253;28;20052;-73
2022/12/06 15:00:48;;;;;;;6.63;3.03;;;;;;;;;;5059366;28;20059;-73
2022/12/06 15:03:17;;;;;;;4.05;3.03;;;;;;;;;;5042074;28;20135;-73
2022/12/06 15:05:44;;;;;;;7.60;3.00;;;;;;;;;;5058154;28;20515;-69
2022/12/06 15:08:25;;;;;;;5.50;2.67;;;;;;;;;;5040474;28;20164;-69
2022/12/06 15:10:59;;;;;;;4.60;2.70;;;;;;;;;;5059588;28;20046;-69
2022/12/06 15:13:26;;;;;;;4.97;2.75;;;;;;;;;;5042989;28;20044;-69
2022/12/06 15:16:01;;;;;;;5.90;3.10;;;;;;;;;;5041306;28;20055;-69
2022/12/06 15:18:29;;;;;;;4.88;2.90;;;;;;;;;;5061687;28;20067;-69
2022/12/06 15:20:55;;;;;;;5.20;3.10;;;;;;;;;;5061350;28;20048;-69